Time;durP1;ratioP1;P1;durP2;ratioP2;P2;SDS_P1;SDS_P2;PMS_P1;PMS_P2;Temp;Humidity;BMP_temperature;BMP_pressure;BME280_temperature;BME280_humidity;BME280_pressure;Samples;Min_cycle;Max_cycle;Signal;HPM_P1;HPM_P2
2022/01/31 00:00:56;;;;;;;;;;;23.90;45.50;;;;;;1535169;75;708;-71
2022/01/31 00:02:58;;;;;;;;;;;23.90;45.50;;;;;;1537224;75;1137;-71
2022/01/31 00:05:00;;;;;;;;;;;23.90;45.50;;;;;;1535667;75;725;-71
2022/01/31 00:07:03;;;;;;;;;;;23.90;45.50;;;;;;1548840;75;672;-70
2022/01/31 00:09:04;;;;;;;;;;;23.90;45.60;;;;;;1542030;75;716;-71
2022/01/31 00:11:06;;;;;;;;;;;23.90;45.50;;;;;;1548096;75;708;-71
2022/01/31 00:13:13;;;;;;;;;;;24.00;45.50;;;;;;1543431;75;1933;-71
2022/01/31 00:15:12;;;;;;;;;;;23.90;45.60;;;;;;1538301;75;1120;-71
2022/01/31 00:17:14;;;;;;;;;;;23.90;45.60;;;;;;1537761;75;789;-72
2022/01/31 00:19:16;;;;;;;;;;;24.00;45.60;;;;;;1532286;75;731;-72
2022/01/31 00:21:18;;;;;;;;;;;23.90;45.60;;;;;;1536170;75;728;-72
2022/01/31 00:23:20;;;;;;;;;;;24.00;45.60;;;;;;1549703;75;1143;-70
2022/01/31 00:25:21;;;;;;;;;;;24.00;45.70;;;;;;1549200;75;713;-70
2022/01/31 00:27:23;;;;;;;;;;;23.80;45.60;;;;;;1536155;75;719;-70
2022/01/31 00:29:25;;;;;;;;;;;23.90;45.70;;;;;;1536064;75;769;-70
2022/01/31 00:31:27;;;;;;;;;;;23.80;45.50;;;;;;1546636;75;694;-71
2022/01/31 00:33:29;;;;;;;;;;;23.90;45.70;;;;;;1545564;75;1940;-71
2022/01/31 00:35:31;;;;;;;;;;;23.90;45.70;;;;;;1547553;75;1072;-71
2022/01/31 00:37:33;;;;;;;;;;;23.90;45.70;;;;;;1547609;75;726;-70
2022/01/31 00:39:36;;;;;;;;;;;23.80;45.60;;;;;;1537264;75;783;-70
2022/01/31 00:41:38;;;;;;;;;;;23.80;45.60;;;;;;1548497;75;666;-70
2022/01/31 00:43:41;;;;;;;;;;;23.90;45.60;;;;;;1530850;75;1178;-68
2022/01/31 00:46:23;;;;;;;;;;;23.80;45.60;;;;;;1541020;75;724;-70
2022/01/31 00:48:01;;;;;;;;;;;24.00;45.70;;;;;;1530303;75;1220;-70
2022/01/31 00:50:12;;;;;;;;;;;23.90;45.70;;;;;;1545168;75;1141;-70
2022/01/31 00:52:14;;;;;;;;;;;23.90;45.70;;;;;;1540183;75;1613;-70
2022/01/31 00:54:16;;;;;;;;;;;23.80;45.70;;;;;;1543242;75;1935;-70
2022/01/31 00:56:17;;;;;;;;;;;23.90;45.80;;;;;;1541976;75;708;-71
2022/01/31 00:58:19;;;;;;;;;;;23.90;45.70;;;;;;1537822;75;791;-69
2022/01/31 01:00:21;;;;;;;;;;;23.90;45.80;;;;;;1548538;75;715;-69
2022/01/31 01:02:23;;;;;;;;;;;23.80;45.70;;;;;;1537152;75;809;-69
2022/01/31 01:04:25;;;;;;;;;;;23.80;45.70;;;;;;1568326;72;2099;-75
2022/01/31 01:06:27;;;;;;;;;;;23.90;45.80;;;;;;1585923;74;689;-75
2022/01/31 01:08:29;;;;;;;;;;;23.80;45.70;;;;;;1591194;74;726;-77
2022/01/31 01:10:31;;;;;;;;;;;23.80;45.70;;;;;;1593486;74;732;-74
2022/01/31 01:12:33;;;;;;;;;;;23.80;45.80;;;;;;1591005;74;780;-75
2022/01/31 01:14:35;;;;;;;;;;;23.90;45.80;;;;;;1578425;74;1935;-74
2022/01/31 01:16:36;;;;;;;;;;;23.90;46.00;;;;;;1557860;75;826;-74
2022/01/31 01:18:38;;;;;;;;;;;24.00;45.90;;;;;;1568792;75;809;-76
2022/01/31 01:20:42;;;;;;;;;;;23.80;45.80;;;;;;1582075;75;725;-76
2022/01/31 01:22:44;;;;;;;;;;;23.80;45.70;;;;;;1564929;75;1058;-79
2022/01/31 01:24:48;;;;;;;;;;;23.90;45.80;;;;;;1564206;75;1114;-79
2022/01/31 01:26:50;;;;;;;;;;;23.80;45.70;;;;;;1567232;75;798;-76
2022/01/31 01:28:52;;;;;;;;;;;23.90;45.70;;;;;;1576486;75;810;-75
2022/01/31 01:30:58;;;;;;;;;;;23.80;45.80;;;;;;1571483;75;771;-75
2022/01/31 01:35:04;;;;;;;;;;;23.80;45.90;;;;;;1561175;75;1082;-79
2022/01/31 01:37:04;;;;;;;;;;;23.80;45.80;;;;;;1557127;75;1712;-75
2022/01/31 01:39:06;;;;;;;;;;;23.80;45.90;;;;;;1580118;75;722;-75
2022/01/31 01:41:08;;;;;;;;;;;23.80;45.90;;;;;;1566424;75;714;-73
2022/01/31 01:43:10;;;;;;;;;;;23.80;45.90;;;;;;1574674;75;735;-78
2022/01/31 01:45:12;;;;;;;;;;;23.80;45.90;;;;;;1573646;75;1109;-75
2022/01/31 01:47:17;;;;;;;;;;;23.80;45.90;;;;;;1566963;75;757;-76
2022/01/31 01:49:18;;;;;;;;;;;23.80;45.90;;;;;;1576618;75;744;-75
2022/01/31 01:51:20;;;;;;;;;;;23.80;46.00;;;;;;1571549;75;803;-74
2022/01/31 01:53:22;;;;;;;;;;;23.80;45.90;;;;;;1580555;75;1942;-78
2022/01/31 01:55:24;;;;;;;;;;;23.80;46.00;;;;;;1561744;75;721;-78
2022/01/31 01:57:27;;;;;;;;;;;23.80;46.00;;;;;;1562806;75;722;-78
2022/01/31 01:59:33;;;;;;;;;;;23.80;46.10;;;;;;1577340;75;670;-76
2022/01/31 02:01:33;;;;;;;;;;;23.80;46.00;;;;;;1557795;75;1163;-75
2022/01/31 02:03:36;;;;;;;;;;;23.80;46.00;;;;;;1568192;75;1138;-76
2022/01/31 02:05:38;;;;;;;;;;;23.70;46.00;;;;;;1568906;75;757;-79
2022/01/31 02:07:40;;;;;;;;;;;23.80;46.00;;;;;;1578603;75;849;-74
2022/01/31 02:09:45;;;;;;;;;;;23.70;46.10;;;;;;1565546;75;668;-76
2022/01/31 02:11:46;;;;;;;;;;;23.70;46.00;;;;;;1566846;75;1135;-78
2022/01/31 02:13:47;;;;;;;;;;;23.90;46.20;;;;;;1557700;75;1937;-76
2022/01/31 02:15:50;;;;;;;;;;;23.80;46.10;;;;;;1567130;75;654;-77
2022/01/31 02:17:52;;;;;;;;;;;23.70;46.10;;;;;;1574431;75;736;-75
2022/01/31 02:19:55;;;;;;;;;;;23.80;46.10;;;;;;1566849;75;705;-75
2022/01/31 02:21:57;;;;;;;;;;;23.70;46.10;;;;;;1561552;75;725;-74
2022/01/31 02:23:58;;;;;;;;;;;23.80;46.20;;;;;;1560989;75;1126;-75
2022/01/31 02:26:01;;;;;;;;;;;23.80;46.20;;;;;;1568064;75;820;-75
2022/01/31 02:28:03;;;;;;;;;;;23.70;46.20;;;;;;1565688;75;724;-74
2022/01/31 02:30:09;;;;;;;;;;;23.70;46.20;;;;;;1572506;75;737;-74
2022/01/31 02:32:12;;;;;;;;;;;23.70;46.20;;;;;;1568402;75;737;-76
2022/01/31 02:34:14;;;;;;;;;;;23.70;46.20;;;;;;1564040;75;1911;-76
2022/01/31 02:36:16;;;;;;;;;;;23.70;46.30;;;;;;1567854;75;809;-76
2022/01/31 02:38:18;;;;;;;;;;;23.80;46.30;;;;;;1572649;75;778;-76
2022/01/31 02:40:19;;;;;;;;;;;23.70;46.30;;;;;;1569597;75;832;-75
2022/01/31 02:42:22;;;;;;;;;;;23.80;46.30;;;;;;1568565;75;811;-77
2022/01/31 02:44:24;;;;;;;;;;;23.70;46.30;;;;;;1566587;75;1127;-75
2022/01/31 02:46:27;;;;;;;;;;;23.70;46.30;;;;;;1557688;75;696;-75
2022/01/31 02:48:33;;;;;;;;;;;23.80;46.20;;;;;;1561129;75;751;-75
2022/01/31 02:50:33;;;;;;;;;;;23.80;46.30;;;;;;1568350;75;1516;-76
2022/01/31 02:52:36;;;;;;;;;;;23.70;46.30;;;;;;1576740;75;735;-74
2022/01/31 02:54:38;;;;;;;;;;;23.80;46.30;;;;;;1566930;75;1925;-74
2022/01/31 02:56:40;;;;;;;;;;;23.70;46.40;;;;;;1568077;75;789;-74
2022/01/31 02:58:42;;;;;;;;;;;23.70;46.40;;;;;;1573511;75;800;-75
2022/01/31 03:00:44;;;;;;;;;;;23.70;46.40;;;;;;1569317;75;794;-75
2022/01/31 03:02:46;;;;;;;;;;;23.90;46.50;;;;;;1565764;75;728;-75
2022/01/31 03:04:48;;;;;;;;;;;23.80;46.40;;;;;;1567674;75;1145;-74
2022/01/31 03:06:49;;;;;;;;;;;23.80;46.40;;;;;;1558933;75;773;-75
2022/01/31 03:08:51;;;;;;;;;;;23.70;46.50;;;;;;1568012;75;771;-75
2022/01/31 03:10:54;;;;;;;;;;;23.70;46.50;;;;;;1566432;75;729;-74
2022/01/31 03:12:56;;;;;;;;;;;23.70;46.50;;;;;;1562142;75;710;-75
2022/01/31 03:14:58;;;;;;;;;;;23.70;46.50;;;;;;1567604;75;1960;-75
2022/01/31 03:17:04;;;;;;;;;;;23.80;46.60;;;;;;1562811;75;714;-75
2022/01/31 03:19:04;;;;;;;;;;;23.70;46.50;;;;;;1568869;75;1653;-75
2022/01/31 03:21:05;;;;;;;;;;;23.70;46.50;;;;;;1576163;75;657;-74
2022/01/31 03:23:07;;;;;;;;;;;23.70;46.60;;;;;;1566563;75;735;-74
2022/01/31 03:25:09;;;;;;;;;;;23.80;46.60;;;;;;1568179;75;1062;-77
2022/01/31 03:27:11;;;;;;;;;;;23.80;46.60;;;;;;1564980;75;737;-75
2022/01/31 03:29:13;;;;;;;;;;;23.80;46.70;;;;;;1565369;75;704;-74
2022/01/31 03:31:18;;;;;;;;;;;23.80;46.70;;;;;;1564468;75;809;-75
2022/01/31 03:33:21;;;;;;;;;;;23.80;46.70;;;;;;1567609;75;1070;-72
2022/01/31 03:35:23;;;;;;;;;;;23.80;46.70;;;;;;1566711;75;1937;-76
2022/01/31 03:37:25;;;;;;;;;;;23.90;46.80;;;;;;1565446;75;813;-74
2022/01/31 03:39:27;;;;;;;;;;;23.90;46.70;;;;;;1562649;75;732;-75
2022/01/31 03:41:29;;;;;;;;;;;23.90;46.60;;;;;;1565605;75;719;-74
2022/01/31 03:43:31;;;;;;;;;;;24.00;46.60;;;;;;1578645;75;1141;-74
2022/01/31 03:45:34;;;;;;;;;;;23.90;46.60;;;;;;1559885;75;676;-74
2022/01/31 03:47:43;;;;;;;;;;;24.00;46.50;;;;;;1568052;75;783;-75
2022/01/31 03:49:40;;;;;;;;;;;24.10;46.60;;;;;;1569981;75;1512;-75
2022/01/31 03:51:41;;;;;;;;;;;24.00;46.50;;;;;;1568222;75;763;-75
2022/01/31 03:53:43;;;;;;;;;;;24.00;46.60;;;;;;1568791;75;1197;-74
2022/01/31 03:55:45;;;;;;;;;;;24.00;46.70;;;;;;1568590;75;1978;-77
2022/01/31 03:57:48;;;;;;;;;;;24.10;46.70;;;;;;1567956;75;723;-76
2022/01/31 03:59:50;;;;;;;;;;;24.10;46.80;;;;;;1560125;75;719;-76
2022/01/31 04:01:52;;;;;;;;;;;24.10;46.60;;;;;;1558955;75;819;-76
2022/01/31 04:03:54;;;;;;;;;;;24.20;46.70;;;;;;1578818;75;1172;-76
2022/01/31 04:05:56;;;;;;;;;;;24.20;46.70;;;;;;1566506;75;792;-78
2022/01/31 04:07:58;;;;;;;;;;;24.10;46.60;;;;;;1557292;75;757;-75
2022/01/31 04:10:00;;;;;;;;;;;24.10;46.60;;;;;;1565380;75;801;-77
2022/01/31 04:12:02;;;;;;;;;;;24.10;46.50;;;;;;1569441;75;718;-76
2022/01/31 04:14:04;;;;;;;;;;;24.30;46.70;;;;;;1563059;75;1940;-76
2022/01/31 04:16:05;;;;;;;;;;;24.20;46.40;;;;;;1567965;75;722;-77
2022/01/31 04:18:07;;;;;;;;;;;24.30;46.50;;;;;;1561479;75;762;-76
2022/01/31 04:20:09;;;;;;;;;;;24.20;46.30;;;;;;1576465;75;718;-75
2022/01/31 04:22:15;;;;;;;;;;;24.30;46.40;;;;;;1562127;75;735;-75
2022/01/31 04:24:21;;;;;;;;;;;24.30;46.40;;;;;;1565016;75;1666;-76
2022/01/31 04:26:18;;;;;;;;;;;24.20;46.30;;;;;;1565959;75;1081;-75
2022/01/31 04:28:25;;;;;;;;;;;24.30;46.40;;;;;;1576951;75;787;-75
2022/01/31 04:30:26;;;;;;;;;;;24.30;46.30;;;;;;1571636;74;1127;-77
2022/01/31 04:32:27;;;;;;;;;;;24.30;46.30;;;;;;1577374;74;750;-77
2022/01/31 04:34:31;;;;;;;;;;;24.30;46.30;;;;;;1579570;75;1949;-78
2022/01/31 04:36:33;;;;;;;;;;;24.30;46.40;;;;;;1571539;75;685;-76
2022/01/31 04:38:34;;;;;;;;;;;24.30;46.40;;;;;;1573028;75;704;-76
2022/01/31 04:40:36;;;;;;;;;;;24.30;46.50;;;;;;1567781;75;721;-77
2022/01/31 04:42:38;;;;;;;;;;;24.30;46.40;;;;;;1570505;75;740;-76
2022/01/31 04:44:40;;;;;;;;;;;24.40;46.50;;;;;;1566655;75;1196;-78
2022/01/31 04:46:45;;;;;;;;;;;24.40;46.40;;;;;;1567329;75;745;-76
2022/01/31 04:48:46;;;;;;;;;;;24.40;46.50;;;;;;1564152;75;1136;-76
2022/01/31 04:50:48;;;;;;;;;;;24.40;46.40;;;;;;1559889;75;734;-75
2022/01/31 04:52:49;;;;;;;;;;;24.40;46.50;;;;;;1568106;75;746;-76
2022/01/31 04:54:51;;;;;;;;;;;24.40;46.60;;;;;;1565953;75;1950;-76
2022/01/31 04:56:53;;;;;;;;;;;24.40;46.50;;;;;;1568017;75;684;-76
2022/01/31 04:58:55;;;;;;;;;;;24.40;46.60;;;;;;1573340;75;719;-78
2022/01/31 05:00:57;;;;;;;;;;;24.40;46.60;;;;;;1553926;75;763;-73
2022/01/31 05:02:59;;;;;;;;;;;24.40;46.50;;;;;;1568117;75;798;-75
2022/01/31 05:05:01;;;;;;;;;;;24.40;46.60;;;;;;1564788;75;1145;-74
2022/01/31 05:07:03;;;;;;;;;;;24.50;46.70;;;;;;1573292;75;784;-75
2022/01/31 05:09:05;;;;;;;;;;;24.40;46.50;;;;;;1567192;75;656;-76
2022/01/31 05:11:12;;;;;;;;;;;24.50;46.60;;;;;;1562245;75;764;-75
2022/01/31 05:13:13;;;;;;;;;;;24.50;46.60;;;;;;1569256;75;1649;-74
2022/01/31 05:15:15;;;;;;;;;;;24.50;46.50;;;;;;1561018;75;1930;-77
2022/01/31 05:17:17;;;;;;;;;;;24.50;46.60;;;;;;1565095;74;716;-77
2022/01/31 05:19:19;;;;;;;;;;;24.50;46.60;;;;;;1576284;75;727;-75
2022/01/31 05:21:21;;;;;;;;;;;24.50;46.60;;;;;;1566054;75;761;-75
2022/01/31 05:23:23;;;;;;;;;;;24.50;46.60;;;;;;1560010;75;1156;-75
2022/01/31 05:25:25;;;;;;;;;;;24.50;46.50;;;;;;1555991;75;735;-76
2022/01/31 05:27:27;;;;;;;;;;;24.50;46.50;;;;;;1578903;75;713;-75
2022/01/31 05:29:28;;;;;;;;;;;24.50;46.50;;;;;;1570373;75;1076;-76
2022/01/31 05:31:30;;;;;;;;;;;24.50;46.40;;;;;;1572239;75;768;-75
2022/01/31 05:33:32;;;;;;;;;;;24.50;46.50;;;;;;1559999;75;1182;-74
2022/01/31 05:35:34;;;;;;;;;;;24.50;46.40;;;;;;1579499;75;1937;-75
2022/01/31 05:37:36;;;;;;;;;;;24.50;46.40;;;;;;1582145;75;641;-76
2022/01/31 05:39:39;;;;;;;;;;;24.50;46.30;;;;;;1572007;75;755;-76
2022/01/31 05:41:41;;;;;;;;;;;24.50;46.20;;;;;;1558605;75;751;-77
2022/01/31 05:43:43;;;;;;;;;;;24.50;46.20;;;;;;1564756;75;1082;-76
2022/01/31 05:45:45;;;;;;;;;;;24.50;46.20;;;;;;1575070;75;776;-77
2022/01/31 05:47:47;;;;;;;;;;;24.50;46.20;;;;;;1568078;75;785;-77
2022/01/31 05:49:48;;;;;;;;;;;24.50;46.10;;;;;;1568702;75;653;-77
2022/01/31 05:52:01;;;;;;;;;;;24.60;46.10;;;;;;1559966;75;760;-75
2022/01/31 05:54:01;;;;;;;;;;;24.50;46.20;;;;;;1575982;75;1686;-74
2022/01/31 05:56:03;;;;;;;;;;;24.60;46.20;;;;;;1566672;75;1937;-74
2022/01/31 05:58:05;;;;;;;;;;;24.60;46.10;;;;;;1566223;75;723;-75
2022/01/31 06:00:07;;;;;;;;;;;24.50;46.10;;;;;;1567877;75;707;-74
2022/01/31 06:02:09;;;;;;;;;;;24.50;46.00;;;;;;1569050;75;752;-73
2022/01/31 06:04:11;;;;;;;;;;;24.50;46.10;;;;;;1567870;75;1209;-74
2022/01/31 06:06:12;;;;;;;;;;;24.50;46.10;;;;;;1568718;75;698;-73
2022/01/31 06:08:14;;;;;;;;;;;24.40;46.00;;;;;;1574012;75;779;-72
2022/01/31 06:10:17;;;;;;;;;;;24.40;46.00;;;;;;1563141;75;761;-74
2022/01/31 06:12:18;;;;;;;;;;;24.40;46.00;;;;;;1573465;75;672;-72
2022/01/31 06:14:20;;;;;;;;;;;24.50;46.10;;;;;;1558979;75;1154;-72
2022/01/31 06:16:22;;;;;;;;;;;24.50;46.20;;;;;;1567972;75;1934;-73
2022/01/31 06:18:24;;;;;;;;;;;24.50;46.20;;;;;;1568496;75;719;-73
2022/01/31 06:20:26;;;;;;;;;;;24.40;46.20;;;;;;1555056;75;846;-74
2022/01/31 06:22:28;;;;;;;;;;;24.50;46.30;;;;;;1557780;75;844;-74
2022/01/31 06:24:30;;;;;;;;;;;24.50;46.30;;;;;;1571721;75;1152;-74
2022/01/31 06:26:32;;;;;;;;;;;24.50;46.30;;;;;;1561607;75;648;-71
2022/01/31 06:28:34;;;;;;;;;;;24.40;46.30;;;;;;1580630;75;734;-73
2022/01/31 06:30:36;;;;;;;;;;;24.40;46.30;;;;;;1568417;75;715;-73
2022/01/31 06:32:38;;;;;;;;;;;24.30;46.30;;;;;;1574023;75;726;-72
2022/01/31 06:34:40;;;;;;;;;;;24.30;46.30;;;;;;1567964;75;1143;-72
2022/01/31 06:36:42;;;;;;;;;;;24.40;46.30;;;;;;1569131;75;1943;-72
2022/01/31 06:38:45;;;;;;;;;;;24.40;46.30;;;;;;1578466;75;729;-72
2022/01/31 06:40:47;;;;;;;;;;;24.40;46.20;;;;;;1579660;75;743;-72
2022/01/31 06:42:49;;;;;;;;;;;24.40;46.20;;;;;;1579826;75;710;-74
2022/01/31 06:44:50;;;;;;;;;;;24.40;46.10;;;;;;1571711;75;1141;-73
2022/01/31 06:46:52;;;;;;;;;;;24.40;46.00;;;;;;1563660;75;762;-73
2022/01/31 06:48:54;;;;;;;;;;;24.30;46.00;;;;;;1564657;75;684;-74
2022/01/31 06:50:56;;;;;;;;;;;24.30;46.00;;;;;;1564885;75;717;-75
2022/01/31 06:52:59;;;;;;;;;;;24.30;46.00;;;;;;1557779;75;793;-81
2022/01/31 06:55:04;;;;;;;;;;;24.20;45.80;;;;;;1567765;75;1922;-75
2022/01/31 06:57:05;;;;;;;;;;;24.20;45.50;;;;;;1581111;75;993;-74
2022/01/31 06:59:07;;;;;;;;;;;24.20;45.50;;;;;;1581462;75;842;-75
2022/01/31 07:01:09;;;;;;;;;;;24.30;45.60;;;;;;1581510;75;774;-77
2022/01/31 07:03:13;;;;;;;;;;;24.20;45.40;;;;;;1581746;75;738;-74
2022/01/31 07:05:14;;;;;;;;;;;24.20;45.40;;;;;;1581195;75;1660;-75
2022/01/31 07:07:16;;;;;;;;;;;24.20;45.40;;;;;;1580442;75;768;-73
2022/01/31 07:09:18;;;;;;;;;;;24.20;45.30;;;;;;1581711;75;709;-75
2022/01/31 07:11:29;;;;;;;;;;;24.20;45.30;;;;;;1581805;75;758;-73
2022/01/31 07:13:47;;;;;;;;;;;24.20;45.30;;;;;;1575789;75;1171;-76
2022/01/31 07:15:27;;;;;;;;;;;24.10;45.20;;;;;;1568079;75;1918;-75
2022/01/31 07:17:30;;;;;;;;;;;24.10;45.20;;;;;;1581808;75;752;-76
2022/01/31 07:19:34;;;;;;;;;;;24.20;45.20;;;;;;1581233;75;733;-70
2022/01/31 07:21:50;;;;;;;;;;;24.20;45.20;;;;;;1580175;75;1012;-73
2022/01/31 07:24:04;;;;;;;;;;;24.20;45.20;;;;;;1581434;75;1665;-72
2022/01/31 07:25:55;;;;;;;;;;;24.20;45.20;;;;;;1578683;75;1647;-75
2022/01/31 07:27:57;;;;;;;;;;;24.20;45.10;;;;;;1579791;75;747;-74
2022/01/31 07:29:59;;;;;;;;;;;24.20;45.10;;;;;;1580279;75;758;-75
2022/01/31 07:32:01;;;;;;;;;;;24.10;45.00;;;;;;1580656;75;789;-76
2022/01/31 07:34:03;;;;;;;;;;;24.10;45.00;;;;;;1581412;75;1141;-77
2022/01/31 07:36:05;;;;;;;;;;;24.20;45.00;;;;;;1581085;75;1922;-74
2022/01/31 07:38:06;;;;;;;;;;;24.10;44.90;;;;;;1578070;75;744;-76
2022/01/31 07:40:08;;;;;;;;;;;24.10;44.90;;;;;;1569432;75;700;-74
2022/01/31 07:42:10;;;;;;;;;;;24.20;44.90;;;;;;1575489;75;739;-74
2022/01/31 07:44:12;;;;;;;;;;;24.10;44.80;;;;;;1581458;75;1159;-74
2022/01/31 07:46:14;;;;;;;;;;;24.20;44.80;;;;;;1580969;75;741;-74
2022/01/31 07:48:16;;;;;;;;;;;24.20;44.80;;;;;;1578570;75;721;-74
2022/01/31 07:50:19;;;;;;;;;;;24.20;44.80;;;;;;1578643;75;786;-76
2022/01/31 07:52:20;;;;;;;;;;;24.20;44.80;;;;;;1567847;75;669;-74
2022/01/31 07:54:22;;;;;;;;;;;24.20;44.80;;;;;;1579068;75;1135;-74
2022/01/31 07:56:24;;;;;;;;;;;24.10;44.80;;;;;;1579110;75;1916;-74
2022/01/31 07:58:26;;;;;;;;;;;24.20;44.70;;;;;;1581766;75;850;-77
2022/01/31 08:00:29;;;;;;;;;;;24.20;44.70;;;;;;1580623;75;776;-73
2022/01/31 08:02:31;;;;;;;;;;;24.10;44.70;;;;;;1579217;75;721;-73
2022/01/31 08:04:33;;;;;;;;;;;24.10;44.60;;;;;;1576312;75;1152;-74
2022/01/31 08:06:35;;;;;;;;;;;24.20;44.70;;;;;;1578638;75;791;-76
2022/01/31 08:08:37;;;;;;;;;;;24.20;44.60;;;;;;1580496;75;769;-76
2022/01/31 08:10:39;;;;;;;;;;;24.10;44.60;;;;;;1576271;75;749;-75
2022/01/31 08:12:42;;;;;;;;;;;24.20;44.60;;;;;;1578293;75;720;-74
2022/01/31 08:14:45;;;;;;;;;;;24.10;44.60;;;;;;1575574;75;1249;-76
2022/01/31 08:16:47;;;;;;;;;;;24.20;44.50;;;;;;1576834;75;1918;-78
2022/01/31 08:18:48;;;;;;;;;;;24.10;44.60;;;;;;1581132;75;729;-74
2022/01/31 08:20:50;;;;;;;;;;;24.10;44.50;;;;;;1580538;75;707;-74
2022/01/31 08:22:52;;;;;;;;;;;24.20;44.60;;;;;;1578109;74;765;-75
2022/01/31 08:24:54;;;;;;;;;;;24.10;44.50;;;;;;1581827;75;1140;-74
2022/01/31 08:26:56;;;;;;;;;;;24.20;44.50;;;;;;1581565;75;1126;-77
2022/01/31 08:29:05;;;;;;;;;;;24.10;44.50;;;;;;1581856;75;734;-79
2022/01/31 08:31:07;;;;;;;;;;;24.20;44.50;;;;;;1575648;75;1130;-76
2022/01/31 08:33:13;;;;;;;;;;;24.20;44.50;;;;;;1580512;75;1635;-74
2022/01/31 08:37:29;;;;;;;;;;;24.20;44.40;;;;;;1574846;75;1870;-75
2022/01/31 08:39:31;;;;;;;;;;;24.10;44.40;;;;;;1580624;75;756;-79
2022/01/31 08:41:33;;;;;;;;;;;24.10;44.40;;;;;;1579843;75;790;-75
2022/01/31 08:43:35;;;;;;;;;;;24.10;44.40;;;;;;1578553;75;1144;-74
2022/01/31 08:45:37;;;;;;;;;;;24.10;44.40;;;;;;1581256;74;767;-71
2022/01/31 08:47:42;;;;;;;;;;;24.10;44.40;;;;;;1580522;75;738;-71
2022/01/31 08:49:44;;;;;;;;;;;24.10;44.40;;;;;;1579015;75;855;-74
2022/01/31 08:51:46;;;;;;;;;;;24.10;44.40;;;;;;1579504;75;810;-78
2022/01/31 08:53:49;;;;;;;;;;;24.20;44.40;;;;;;1570772;75;1156;-74
2022/01/31 08:55:52;;;;;;;;;;;24.10;44.40;;;;;;1563834;75;1923;-75
2022/01/31 08:57:56;;;;;;;;;;;24.10;44.40;;;;;;1578176;75;756;-73
2022/01/31 08:59:58;;;;;;;;;;;24.10;44.40;;;;;;1565811;75;1673;-73
2022/01/31 09:02:13;;;;;;;;;;;24.20;44.40;;;;;;1567535;75;777;-77
2022/01/31 09:04:12;;;;;;;;;;;24.20;44.40;;;;;;1562553;75;1187;-72
2022/01/31 09:06:14;;;;;;;;;;;24.10;44.40;;;;;;1567659;75;717;-77
2022/01/31 09:08:16;;;;;;;;;;;24.20;44.50;;;;;;1580391;75;796;-74
2022/01/31 09:10:18;;;;;;;;;;;24.20;44.50;;;;;;1581237;75;710;-74
2022/01/31 09:12:21;;;;;;;;;;;24.20;44.40;;;;;;1580385;75;867;-74
2022/01/31 09:14:23;;;;;;;;;;;24.20;44.40;;;;;;1581046;75;1183;-73
2022/01/31 09:16:25;;;;;;;;;;;24.10;44.40;;;;;;1580737;75;1930;-74
2022/01/31 09:18:26;;;;;;;;;;;24.10;44.50;;;;;;1581483;75;709;-74
2022/01/31 09:20:28;;;;;;;;;;;24.20;44.50;;;;;;1581023;75;723;-74
2022/01/31 09:22:30;;;;;;;;;;;24.10;44.50;;;;;;1581884;75;719;-73
2022/01/31 09:24:37;;;;;;;;;;;24.20;44.50;;;;;;1582037;75;1140;-74
2022/01/31 09:26:37;;;;;;;;;;;24.20;44.50;;;;;;1580925;75;1128;-76
2022/01/31 09:28:39;;;;;;;;;;;24.20;44.40;;;;;;1581632;75;762;-74
2022/01/31 09:30:41;;;;;;;;;;;24.10;44.40;;;;;;1581075;75;731;-73
2022/01/31 09:32:42;;;;;;;;;;;24.20;44.40;;;;;;1579950;75;770;-75
2022/01/31 09:34:44;;;;;;;;;;;24.20;44.40;;;;;;1580916;75;1150;-75
2022/01/31 09:36:46;;;;;;;;;;;24.10;44.40;;;;;;1577134;75;1943;-78
2022/01/31 09:38:48;;;;;;;;;;;24.20;44.40;;;;;;1581190;75;795;-74
2022/01/31 09:40:50;;;;;;;;;;;24.20;44.40;;;;;;1581460;75;761;-74
2022/01/31 09:43:08;;;;;;;;;;;24.20;44.50;;;;;;1581493;75;767;-73
2022/01/31 09:47:19;;;;;;;;;;;24.20;44.60;;;;;;1579540;75;808;-78
2022/01/31 09:49:07;;;;;;;;;;;24.20;44.60;;;;;;1577119;75;1099;-77
2022/01/31 09:51:10;;;;;;;;;;;24.20;44.60;;;;;;1581447;75;720;-74
2022/01/31 09:53:12;;;;;;;;;;;24.20;44.60;;;;;;1581062;75;881;-75
2022/01/31 09:55:14;;;;;;;;;;;24.20;44.70;;;;;;1580955;75;1089;-76
2022/01/31 09:57:17;;;;;;;;;;;24.10;44.70;;;;;;1581267;75;1915;-76
2022/01/31 09:59:19;;;;;;;;;;;24.20;44.70;;;;;;1581514;75;784;-77
2022/01/31 10:01:21;;;;;;;;;;;24.20;44.70;;;;;;1581553;75;767;-75
2022/01/31 10:03:23;;;;;;;;;;;24.20;44.70;;;;;;1579238;75;1182;-75
2022/01/31 10:05:28;;;;;;;;;;;24.10;44.70;;;;;;1581865;75;713;-73
2022/01/31 10:07:43;;;;;;;;;;;24.20;44.70;;;;;;1580853;75;733;-78
2022/01/31 10:09:50;;;;;;;;;;;24.10;44.70;;;;;;1580940;75;779;-75
2022/01/31 10:11:50;;;;;;;;;;;24.20;44.70;;;;;;1579949;75;1109;-78
2022/01/31 10:16:32;;;;;;;;;;;24.20;44.80;;;;;;1581049;75;1908;-76
2022/01/31 10:18:33;;;;;;;;;;;24.20;44.70;;;;;;1581477;75;1181;-74
2022/01/31 10:20:35;;;;;;;;;;;24.20;44.70;;;;;;1578466;75;828;-74
2022/01/31 10:22:42;;;;;;;;;;;24.10;44.80;;;;;;1581689;75;812;-73
2022/01/31 10:24:45;;;;;;;;;;;24.20;44.80;;;;;;1579990;75;1179;-75
2022/01/31 10:26:47;;;;;;;;;;;24.20;44.70;;;;;;1581499;75;871;-75
2022/01/31 10:28:49;;;;;;;;;;;24.20;44.80;;;;;;1578143;75;1010;-75
2022/01/31 10:30:52;;;;;;;;;;;24.20;44.70;;;;;;1581611;74;781;-74
2022/01/31 10:32:54;;;;;;;;;;;24.20;44.70;;;;;;1582087;74;818;-78
2022/01/31 10:34:58;;;;;;;;;;;24.10;44.70;;;;;;1578396;75;1161;-80
2022/01/31 10:37:04;;;;;;;;;;;24.20;44.70;;;;;;1578962;74;1929;-75
2022/01/31 10:39:12;;;;;;;;;;;24.20;44.70;;;;;;1568016;75;674;-75
2022/01/31 10:44:02;;;;;;;;;;;24.20;44.70;;;;;;1554799;75;1638;-75
2022/01/31 10:52:45;;;;;;;;;;;24.20;44.60;;;;;;1571521;75;1608;-75
2022/01/31 10:54:51;;;;;;;;;;;24.20;44.60;;;;;;1572250;75;1080;-75
2022/01/31 10:56:55;;;;;;;;;;;24.20;44.70;;;;;;1567480;75;1930;-74
2022/01/31 10:59:01;;;;;;;;;;;24.20;44.70;;;;;;1575362;75;1001;-74
2022/01/31 11:01:13;;;;;;;;;;;24.20;44.60;;;;;;1570736;75;707;-75
2022/01/31 11:03:32;;;;;;;;;;;24.20;44.60;;;;;;1570422;75;653;-76
2022/01/31 11:05:34;;;;;;;;;;;24.20;44.60;;;;;;1568264;75;664;-73
2022/01/31 11:07:35;;;;;;;;;;;24.20;44.60;;;;;;1573560;75;809;-76
2022/01/31 11:09:37;;;;;;;;;;;24.20;44.60;;;;;;1556341;75;739;-74
2022/01/31 11:11:41;;;;;;;;;;;24.20;44.60;;;;;;1573671;75;580;-85
2022/01/31 11:13:42;;;;;;;;;;;24.20;44.60;;;;;;1566851;75;1169;-75
2022/01/31 11:15:44;;;;;;;;;;;24.20;44.50;;;;;;1565894;75;741;-75
2022/01/31 11:17:46;;;;;;;;;;;24.20;44.60;;;;;;1569681;75;1935;-76
2022/01/31 11:19:55;;;;;;;;;;;24.20;44.60;;;;;;1577673;75;718;-76
2022/01/31 11:21:53;;;;;;;;;;;24.20;44.50;;;;;;1564340;75;1096;-77
2022/01/31 11:24:00;;;;;;;;;;;24.20;44.50;;;;;;1564770;75;1203;-76
2022/01/31 11:25:59;;;;;;;;;;;24.20;44.50;;;;;;1571199;75;1902;-75
2022/01/31 11:28:02;;;;;;;;;;;24.20;44.50;;;;;;1573349;75;712;-75
2022/01/31 11:30:06;;;;;;;;;;;24.20;44.50;;;;;;1572808;75;804;-76
2022/01/31 11:32:08;;;;;;;;;;;24.30;44.60;;;;;;1566385;75;828;-76
2022/01/31 11:34:10;;;;;;;;;;;24.30;44.60;;;;;;1571706;75;1155;-76
2022/01/31 11:36:12;;;;;;;;;;;24.30;44.50;;;;;;1579613;75;814;-76
2022/01/31 11:38:13;;;;;;;;;;;24.30;44.50;;;;;;1551423;76;1949;-75
2022/01/31 11:40:15;;;;;;;;;;;24.30;44.60;;;;;;1566443;75;744;-76
2022/01/31 11:42:17;;;;;;;;;;;24.30;44.50;;;;;;1575813;75;687;-75
2022/01/31 11:44:37;;;;;;;;;;;24.30;44.40;;;;;;1572802;75;1128;-75
2022/01/31 11:46:40;;;;;;;;;;;24.30;44.40;;;;;;1566002;75;733;-74
2022/01/31 11:48:42;;;;;;;;;;;24.30;44.40;;;;;;1576524;75;753;-75
2022/01/31 11:50:45;;;;;;;;;;;24.30;44.40;;;;;;1580049;75;754;-74
2022/01/31 11:52:51;;;;;;;;;;;24.30;44.30;;;;;;1571805;74;1751;-75
2022/01/31 11:54:54;;;;;;;;;;;24.30;44.30;;;;;;1569050;74;1233;-73
2022/01/31 11:56:56;;;;;;;;;;;24.30;44.30;;;;;;1563071;74;1896;-74
2022/01/31 11:58:58;;;;;;;;;;;24.30;44.30;;;;;;1556354;75;727;-75
2022/01/31 12:01:00;;;;;;;;;;;24.30;44.40;;;;;;1553943;75;1205;-76
2022/01/31 12:03:09;;;;;;;;;;;24.30;44.40;;;;;;1556195;76;1016;-75
2022/01/31 12:05:11;;;;;;;;;;;24.30;44.30;;;;;;1521572;78;1133;-75
2022/01/31 12:07:32;;;;;;;;;;;24.30;44.40;;;;;;1518516;78;704;-74
2022/01/31 12:09:34;;;;;;;;;;;24.30;44.30;;;;;;1578155;74;789;-75
2022/01/31 12:11:55;;;;;;;;;;;24.30;44.30;;;;;;1586161;74;809;-75
2022/01/31 12:14:07;;;;;;;;;;;24.30;44.30;;;;;;1559189;75;1176;-74
2022/01/31 12:16:09;;;;;;;;;;;24.20;44.20;;;;;;1553189;75;1121;-73
2022/01/31 12:23:11;;;;;;;;;;;24.30;44.30;;;;;;1576810;74;1601;-74
2022/01/31 12:25:27;;;;;;;;;;;24.20;44.20;;;;;;1553838;75;1935;-76
2022/01/31 12:27:29;;;;;;;;;;;24.30;44.40;;;;;;1565189;74;701;-73
2022/01/31 12:29:31;;;;;;;;;;;24.30;44.30;;;;;;1578337;74;727;-73
2022/01/31 12:31:38;;;;;;;;;;;24.30;44.40;;;;;;1574966;74;719;-75
2022/01/31 12:33:40;;;;;;;;;;;24.20;44.20;;;;;;1570748;74;1095;-73
2022/01/31 12:35:44;;;;;;;;;;;24.30;44.40;;;;;;1549366;75;691;-74